<?xml version="1.0" encoding="UTF-8" standalone="no" ?>
<gpx xmlns="http://www.topografix.com/GPX/1/1" xmlns:xsi="http://www.w3.org/2001/XMLSchema-instance" xsi:schemaLocation="http://www.topografix.com/GPX/1/1 http://www.topografix.com/GPX/1/1/gpx.xsd" version="1.1" creator="VisuGPX - https://www.visugpx.com">
  <metadata>
    <name>Vacances 2021</name>
  </metadata>
  <trk>
    <name><![CDATA[Journal actif: 2021-07-23 14:59]]></name>
    <trkseg>
      <trkpt lat="49.20985" lon="5.47066">
        <ele>262.58</ele>
        <time>2021-07-23T16:59:05Z</time>
      </trkpt>
      <trkpt lat="49.20872" lon="5.47068">
        <ele>257.29</ele>
        <time>2021-07-23T16:59:15Z</time>
      </trkpt>
      <trkpt lat="49.20645" lon="5.47072">
        <ele>258.25</ele>
        <time>2021-07-23T16:59:32Z</time>
      </trkpt>
      <trkpt lat="49.20635" lon="5.47071">
        <ele>258.73</ele>
        <time>2021-07-23T16:59:33Z</time>
      </trkpt>
      <trkpt lat="49.20627" lon="5.47067">
        <ele>260.65</ele>
        <time>2021-07-23T16:59:34Z</time>
      </trkpt>
      <trkpt lat="49.20618" lon="5.47063">
        <ele>262.1</ele>
        <time>2021-07-23T16:59:35Z</time>
      </trkpt>
      <trkpt lat="49.20612" lon="5.47057">
        <ele>262.58</ele>
        <time>2021-07-23T16:59:36Z</time>
      </trkpt>
      <trkpt lat="49.20605" lon="5.47049">
        <ele>263.06</ele>
        <time>2021-07-23T16:59:37Z</time>
      </trkpt>
      <trkpt lat="49.20598" lon="5.4704">
        <ele>263.54</ele>
        <time>2021-07-23T16:59:38Z</time>
      </trkpt>
      <trkpt lat="49.20593" lon="5.47029">
        <ele>264.02</ele>
        <time>2021-07-23T16:59:39Z</time>
      </trkpt>
      <trkpt lat="49.20588" lon="5.47019">
        <ele>264.98</ele>
        <time>2021-07-23T16:59:40Z</time>
      </trkpt>
      <trkpt lat="49.20573" lon="5.46975">
        <ele>267.86</ele>
        <time>2021-07-23T16:59:47Z</time>
      </trkpt>
      <trkpt lat="49.20574" lon="5.46969">
        <ele>267.86</ele>
        <time>2021-07-23T16:59:48Z</time>
      </trkpt>
      <trkpt lat="49.20574" lon="5.46963">
        <ele>267.86</ele>
        <time>2021-07-23T16:59:49Z</time>
      </trkpt>
      <trkpt lat="49.20589" lon="5.46846">
        <ele>269.79</ele>
        <time>2021-07-23T17:00:00Z</time>
      </trkpt>
      <trkpt lat="49.20591" lon="5.46829">
        <ele>269.31</ele>
        <time>2021-07-23T17:00:07Z</time>
      </trkpt>
      <trkpt lat="49.20595" lon="5.46799">
        <ele>269.31</ele>
        <time>2021-07-23T17:00:55Z</time>
      </trkpt>
      <trkpt lat="49.20597" lon="5.46685">
        <ele>270.27</ele>
        <time>2021-07-23T17:01:03Z</time>
      </trkpt>
      <trkpt lat="49.20583" lon="5.46425">
        <ele>270.27</ele>
        <time>2021-07-23T17:01:15Z</time>
      </trkpt>
      <trkpt lat="49.2058" lon="5.46354">
        <ele>269.31</ele>
        <time>2021-07-23T17:01:18Z</time>
      </trkpt>
      <trkpt lat="49.20581" lon="5.46333">
        <ele>270.27</ele>
        <time>2021-07-23T17:01:19Z</time>
      </trkpt>
      <trkpt lat="49.20584" lon="5.4631">
        <ele>270.27</ele>
        <time>2021-07-23T17:01:20Z</time>
      </trkpt>
      <trkpt lat="49.20632" lon="5.46006">
        <ele>270.75</ele>
        <time>2021-07-23T17:01:32Z</time>
      </trkpt>
      <trkpt lat="49.20647" lon="5.45776">
        <ele>274.59</ele>
        <time>2021-07-23T17:01:41Z</time>
      </trkpt>
      <trkpt lat="49.20644" lon="5.45753">
        <ele>274.11</ele>
        <time>2021-07-23T17:01:42Z</time>
      </trkpt>
      <trkpt lat="49.2064" lon="5.45729">
        <ele>274.59</ele>
        <time>2021-07-23T17:01:43Z</time>
      </trkpt>
      <trkpt lat="49.20636" lon="5.45706">
        <ele>274.11</ele>
        <time>2021-07-23T17:01:44Z</time>
      </trkpt>
      <trkpt lat="49.20628" lon="5.45684">
        <ele>274.11</ele>
        <time>2021-07-23T17:01:45Z</time>
      </trkpt>
      <trkpt lat="49.20621" lon="5.45663">
        <ele>275.56</ele>
        <time>2021-07-23T17:01:46Z</time>
      </trkpt>
      <trkpt lat="49.20613" lon="5.45642">
        <ele>276.52</ele>
        <time>2021-07-23T17:01:47Z</time>
      </trkpt>
      <trkpt lat="49.20602" lon="5.45625">
        <ele>276.52</ele>
        <time>2021-07-23T17:01:48Z</time>
      </trkpt>
      <trkpt lat="49.20591" lon="5.45607">
        <ele>276.04</ele>
        <time>2021-07-23T17:01:49Z</time>
      </trkpt>
      <trkpt lat="49.2058" lon="5.45588">
        <ele>275.56</ele>
        <time>2021-07-23T17:01:50Z</time>
      </trkpt>
      <trkpt lat="49.20447" lon="5.45463">
        <ele>275.56</ele>
        <time>2021-07-23T17:01:59Z</time>
      </trkpt>
      <trkpt lat="49.20204" lon="5.45357">
        <ele>279.88</ele>
        <time>2021-07-23T17:02:12Z</time>
      </trkpt>
      <trkpt lat="49.20097" lon="5.45305">
        <ele>284.69</ele>
        <time>2021-07-23T17:02:18Z</time>
      </trkpt>
      <trkpt lat="49.2008" lon="5.45294">
        <ele>285.65</ele>
        <time>2021-07-23T17:02:19Z</time>
      </trkpt>
      <trkpt lat="49.20064" lon="5.45282">
        <ele>286.61</ele>
        <time>2021-07-23T17:02:20Z</time>
      </trkpt>
      <trkpt lat="49.2005" lon="5.45265">
        <ele>287.09</ele>
        <time>2021-07-23T17:02:21Z</time>
      </trkpt>
      <trkpt lat="49.20036" lon="5.45247">
        <ele>288.05</ele>
        <time>2021-07-23T17:02:22Z</time>
      </trkpt>
      <trkpt lat="49.20021" lon="5.45229">
        <ele>289.01</ele>
        <time>2021-07-23T17:02:23Z</time>
      </trkpt>
      <trkpt lat="49.20008" lon="5.45206">
        <ele>290.46</ele>
        <time>2021-07-23T17:02:24Z</time>
      </trkpt>
      <trkpt lat="49.19817" lon="5.44903">
        <ele>307.76</ele>
        <time>2021-07-23T17:02:38Z</time>
      </trkpt>
      <trkpt lat="49.19614" lon="5.44684">
        <ele>316.41</ele>
        <time>2021-07-23T17:02:51Z</time>
      </trkpt>
      <trkpt lat="49.19517" lon="5.4453">
        <ele>320.74</ele>
        <time>2021-07-23T17:02:59Z</time>
      </trkpt>
      <trkpt lat="49.19475" lon="5.44362">
        <ele>330.83</ele>
        <time>2021-07-23T17:03:06Z</time>
      </trkpt>
      <trkpt lat="49.19452" lon="5.4415">
        <ele>340.44</ele>
        <time>2021-07-23T17:03:14Z</time>
      </trkpt>
      <trkpt lat="49.19434" lon="5.44081">
        <ele>343.33</ele>
        <time>2021-07-23T17:03:17Z</time>
      </trkpt>
      <trkpt lat="49.19427" lon="5.44059">
        <ele>343.33</ele>
        <time>2021-07-23T17:03:18Z</time>
      </trkpt>
      <trkpt lat="49.19418" lon="5.4404">
        <ele>344.29</ele>
        <time>2021-07-23T17:03:19Z</time>
      </trkpt>
      <trkpt lat="49.19407" lon="5.44022">
        <ele>345.25</ele>
        <time>2021-07-23T17:03:20Z</time>
      </trkpt>
      <trkpt lat="49.19397" lon="5.44006">
        <ele>345.25</ele>
        <time>2021-07-23T17:03:21Z</time>
      </trkpt>
      <trkpt lat="49.19274" lon="5.43844">
        <ele>354.86</ele>
        <time>2021-07-23T17:03:32Z</time>
      </trkpt>
      <trkpt lat="49.1923" lon="5.43795">
        <ele>356.31</ele>
        <time>2021-07-23T17:03:37Z</time>
      </trkpt>
      <trkpt lat="49.1923" lon="5.43795">
        <ele>355.83</ele>
        <time>2021-07-23T17:03:38Z</time>
      </trkpt>
      <trkpt lat="49.19228" lon="5.43792">
        <ele>355.83</ele>
        <time>2021-07-23T17:03:39Z</time>
      </trkpt>
      <trkpt lat="49.19225" lon="5.43789">
        <ele>355.83</ele>
        <time>2021-07-23T17:03:42Z</time>
      </trkpt>
      <trkpt lat="49.19227" lon="5.43783">
        <ele>355.83</ele>
        <time>2021-07-23T17:03:43Z</time>
      </trkpt>
      <trkpt lat="49.19229" lon="5.43781">
        <ele>355.34</ele>
        <time>2021-07-23T17:03:44Z</time>
      </trkpt>
      <trkpt lat="49.19233" lon="5.43777">
        <ele>354.86</ele>
        <time>2021-07-23T17:03:45Z</time>
      </trkpt>
      <trkpt lat="49.19237" lon="5.43773">
        <ele>354.86</ele>
        <time>2021-07-23T17:03:46Z</time>
      </trkpt>
      <trkpt lat="49.19241" lon="5.43769">
        <ele>354.38</ele>
        <time>2021-07-23T17:03:47Z</time>
      </trkpt>
      <trkpt lat="49.193" lon="5.43707">
        <ele>350.54</ele>
        <time>2021-07-23T17:03:54Z</time>
      </trkpt>
      <trkpt lat="49.19413" lon="5.43551">
        <ele>349.1</ele>
        <time>2021-07-23T17:04:04Z</time>
      </trkpt>
      <trkpt lat="49.19456" lon="5.43491">
        <ele>349.1</ele>
        <time>2021-07-23T17:04:10Z</time>
      </trkpt>
      <trkpt lat="49.19537" lon="5.43376">
        <ele>348.13</ele>
        <time>2021-07-23T17:04:19Z</time>
      </trkpt>
      <trkpt lat="49.19617" lon="5.43237">
        <ele>345.73</ele>
        <time>2021-07-23T17:04:29Z</time>
      </trkpt>
      <trkpt lat="49.19628" lon="5.43207">
        <ele>345.25</ele>
        <time>2021-07-23T17:04:31Z</time>
      </trkpt>
      <trkpt lat="49.19642" lon="5.43178">
        <ele>343.81</ele>
        <time>2021-07-23T17:04:32Z</time>
      </trkpt>
      <trkpt lat="49.19642" lon="5.43178">
        <ele>342.85</ele>
        <time>2021-07-23T17:04:33Z</time>
      </trkpt>
      <trkpt lat="49.19783" lon="5.42994">
        <ele>336.6</ele>
        <time>2021-07-23T17:04:46Z</time>
      </trkpt>
      <trkpt lat="49.19899" lon="5.42846">
        <ele>333.71</ele>
        <time>2021-07-23T17:05:00Z</time>
      </trkpt>
      <trkpt lat="49.20011" lon="5.4267">
        <ele>335.64</ele>
        <time>2021-07-23T17:05:12Z</time>
      </trkpt>
      <trkpt lat="49.20147" lon="5.42391">
        <ele>335.64</ele>
        <time>2021-07-23T17:05:27Z</time>
      </trkpt>
      <trkpt lat="49.2016" lon="5.42378">
        <ele>335.16</ele>
        <time>2021-07-23T17:05:28Z</time>
      </trkpt>
      <trkpt lat="49.2032" lon="5.42213">
        <ele>336.12</ele>
        <time>2021-07-23T17:05:39Z</time>
      </trkpt>
      <trkpt lat="49.20417" lon="5.42115">
        <ele>337.56</ele>
        <time>2021-07-23T17:05:49Z</time>
      </trkpt>
      <trkpt lat="49.20431" lon="5.42106">
        <ele>338.04</ele>
        <time>2021-07-23T17:05:51Z</time>
      </trkpt>
      <trkpt lat="49.20437" lon="5.42102">
        <ele>338.52</ele>
        <time>2021-07-23T17:05:52Z</time>
      </trkpt>
      <trkpt lat="49.20441" lon="5.42099">
        <ele>338.52</ele>
        <time>2021-07-23T17:05:53Z</time>
      </trkpt>
      <trkpt lat="49.20443" lon="5.42097">
        <ele>338.52</ele>
        <time>2021-07-23T17:05:54Z</time>
      </trkpt>
      <trkpt lat="49.20445" lon="5.42096">
        <ele>339</ele>
        <time>2021-07-23T17:05:55Z</time>
      </trkpt>
      <trkpt lat="49.20446" lon="5.42095">
        <ele>339</ele>
        <time>2021-07-23T17:05:56Z</time>
      </trkpt>
      <trkpt lat="49.20449" lon="5.42102">
        <ele>339</ele>
        <time>2021-07-23T17:05:57Z</time>
      </trkpt>
      <trkpt lat="49.2045" lon="5.42113">
        <ele>338.52</ele>
        <time>2021-07-23T17:05:58Z</time>
      </trkpt>
      <trkpt lat="49.20451" lon="5.4212">
        <ele>338.52</ele>
        <time>2021-07-23T17:05:59Z</time>
      </trkpt>
      <trkpt lat="49.20451" lon="5.4212">
        <ele>338.04</ele>
        <time>2021-07-23T17:06:00Z</time>
      </trkpt>
      <trkpt lat="49.20455" lon="5.42163">
        <ele>337.56</ele>
        <time>2021-07-23T17:06:05Z</time>
      </trkpt>
      <trkpt lat="49.20458" lon="5.42173">
        <ele>337.56</ele>
        <time>2021-07-23T17:06:06Z</time>
      </trkpt>
      <trkpt lat="49.20463" lon="5.42195">
        <ele>337.56</ele>
        <time>2021-07-23T17:06:07Z</time>
      </trkpt>
      <trkpt lat="49.20463" lon="5.42195">
        <ele>337.56</ele>
        <time>2021-07-23T17:06:08Z</time>
      </trkpt>
      <trkpt lat="49.20467" lon="5.42204">
        <ele>337.56</ele>
        <time>2021-07-23T17:06:09Z</time>
      </trkpt>
      <trkpt lat="49.20543" lon="5.42375">
        <ele>332.27</ele>
        <time>2021-07-23T17:06:23Z</time>
      </trkpt>
      <trkpt lat="49.20623" lon="5.42546">
        <ele>332.27</ele>
        <time>2021-07-23T17:06:35Z</time>
      </trkpt>
      <trkpt lat="49.20676" lon="5.42657">
        <ele>334.68</ele>
        <time>2021-07-23T17:06:47Z</time>
      </trkpt>
      <trkpt lat="49.20711" lon="5.42716">
        <ele>336.6</ele>
        <time>2021-07-23T17:06:54Z</time>
      </trkpt>
      <trkpt lat="49.20769" lon="5.42772">
        <ele>340.92</ele>
        <time>2021-07-23T17:07:02Z</time>
      </trkpt>
      <trkpt lat="49.20777" lon="5.42777">
        <ele>341.41</ele>
        <time>2021-07-23T17:07:03Z</time>
      </trkpt>
      <trkpt lat="49.20785" lon="5.42779">
        <ele>341.89</ele>
        <time>2021-07-23T17:07:04Z</time>
      </trkpt>
      <trkpt lat="49.20792" lon="5.4278">
        <ele>342.85</ele>
        <time>2021-07-23T17:07:05Z</time>
      </trkpt>
      <trkpt lat="49.20799" lon="5.42781">
        <ele>343.33</ele>
        <time>2021-07-23T17:07:06Z</time>
      </trkpt>
      <trkpt lat="49.20805" lon="5.42782">
        <ele>343.81</ele>
        <time>2021-07-23T17:07:07Z</time>
      </trkpt>
      <trkpt lat="49.2081" lon="5.42782">
        <ele>344.29</ele>
        <time>2021-07-23T17:07:08Z</time>
      </trkpt>
      <trkpt lat="49.20815" lon="5.42786">
        <ele>344.29</ele>
        <time>2021-07-23T17:07:09Z</time>
      </trkpt>
      <trkpt lat="49.20819" lon="5.42792">
        <ele>344.77</ele>
        <time>2021-07-23T17:07:10Z</time>
      </trkpt>
      <trkpt lat="49.20823" lon="5.42798">
        <ele>344.77</ele>
        <time>2021-07-23T17:07:11Z</time>
      </trkpt>
      <trkpt lat="49.2088" lon="5.42886">
        <ele>347.17</ele>
        <time>2021-07-23T17:07:21Z</time>
      </trkpt>
      <trkpt lat="49.20966" lon="5.4299">
        <ele>348.62</ele>
        <time>2021-07-23T17:07:32Z</time>
      </trkpt>
      <trkpt lat="49.21098" lon="5.43105">
        <ele>350.54</ele>
        <time>2021-07-23T17:07:44Z</time>
      </trkpt>
      <trkpt lat="49.2119" lon="5.43238">
        <ele>357.27</ele>
        <time>2021-07-23T17:07:55Z</time>
      </trkpt>
      <trkpt lat="49.21224" lon="5.43294">
        <ele>360.63</ele>
        <time>2021-07-23T17:08:01Z</time>
      </trkpt>
      <trkpt lat="49.21262" lon="5.43367">
        <ele>361.59</ele>
        <time>2021-07-23T17:08:12Z</time>
      </trkpt>
      <trkpt lat="49.21309" lon="5.43469">
        <ele>364.48</ele>
        <time>2021-07-23T17:08:26Z</time>
      </trkpt>
      <trkpt lat="49.21347" lon="5.43565">
        <ele>366.4</ele>
        <time>2021-07-23T17:08:39Z</time>
      </trkpt>
      <trkpt lat="49.21413" lon="5.43677">
        <ele>370.73</ele>
        <time>2021-07-23T17:08:52Z</time>
      </trkpt>
      <trkpt lat="49.21485" lon="5.43771">
        <ele>375.05</ele>
        <time>2021-07-23T17:09:05Z</time>
      </trkpt>
      <trkpt lat="49.21495" lon="5.43783">
        <ele>375.53</ele>
        <time>2021-07-23T17:09:07Z</time>
      </trkpt>
      <trkpt lat="49.215" lon="5.43788">
        <ele>376.01</ele>
        <time>2021-07-23T17:09:08Z</time>
      </trkpt>
      <trkpt lat="49.21504" lon="5.43793">
        <ele>376.01</ele>
        <time>2021-07-23T17:09:09Z</time>
      </trkpt>
      <trkpt lat="49.21507" lon="5.43797">
        <ele>376.49</ele>
        <time>2021-07-23T17:09:10Z</time>
      </trkpt>
      <trkpt lat="49.21511" lon="5.43801">
        <ele>376.49</ele>
        <time>2021-07-23T17:09:11Z</time>
      </trkpt>
      <trkpt lat="49.21513" lon="5.43804">
        <ele>376.49</ele>
        <time>2021-07-23T17:09:12Z</time>
      </trkpt>
      <trkpt lat="49.2152" lon="5.43901">
        <ele>376.01</ele>
        <time>2021-07-23T17:09:23Z</time>
      </trkpt>
      <trkpt lat="49.21529" lon="5.43935">
        <ele>376.49</ele>
        <time>2021-07-23T17:09:29Z</time>
      </trkpt>
      <trkpt lat="49.21549" lon="5.43933">
        <ele>375.53</ele>
        <time>2021-07-23T17:09:36Z</time>
      </trkpt>
      <trkpt lat="49.21548" lon="5.43916">
        <ele>375.53</ele>
        <time>2021-07-23T17:09:39Z</time>
      </trkpt>
      <trkpt lat="49.21538" lon="5.43833">
        <ele>375.53</ele>
        <time>2021-07-23T17:09:52Z</time>
      </trkpt>
      <trkpt lat="49.21536" lon="5.43831">
        <ele>375.53</ele>
        <time>2021-07-23T17:09:53Z</time>
      </trkpt>
      <trkpt lat="49.21532" lon="5.43839">
        <ele>376.97</ele>
        <time>2021-07-23T17:10:05Z</time>
      </trkpt>
    </trkseg>
  </trk>
</gpx>